首页
METAR-TAF:

METAR-TAF

机场 :

阿勒馬克圖姆國際機場

杜拜, 阿拉伯联合酋长国

纬度: 24-53-49N, 经度: 55-09-40E, 海拔: 35米

当前天气观测

该预报发布于17分钟前的14:00 UTC
风速7节,风向西北
温度 25°C
湿度 79%
气压 1016 hPa
能見度: 8000

METAR: OMDW 031400Z 31007KT 8000 NSC 25/21 Q1016 NOSIG

时间: 18:17 (14:17 UTC)

预报

该预报发布于3小时和17分钟前的11:00 UTC
预报有效从03日的 12点(UTC)到 04日的 18点(UTC)
风速10节,风向西北
能见度10公里或以上
1500米以下无云,无积雨云
成为
从 03日的 16点(UTC)到 03日的 18点(UTC)
风速2节,风向多变
几率 30%
从 03日的 22点(UTC)到 04日的 05点(UTC)
能見度: 3000
多云层高于700英尺
轻雾
成为
从 04日的 07点(UTC)到 04日的 09点(UTC)
风速10节,风向西转西北
成为
从 04日的 15点(UTC)到 04日的 17点(UTC)
风速5节,风向西转西南

TAF: OMDW 031100Z 0312/0418 32010KT CAVOK BECMG 0316/0318 VRB02KT PROB30 0322/0405 3000 BR BKN007 BECMG 0407/0409 30010KT BECMG 0415/0417 24005KT

超过4000个机场的气象观测和天气预报(METAR&TAF报告)。

可查询的气象台以黄色和红色小点在地图上表示。

将鼠标移到小点上方,可查看气象台名称。

然后点击查看天气观测和预报。

如需切换地图:点击带黑十字的绿色按钮放大地图;点击带横线的绿色按钮缩小地图;或者点击绿色箭头查看邻近地区的地图。


METAR-TAF: